Time;durP1;ratioP1;P1;durP2;ratioP2;P2;SDS_P1;SDS_P2;PMS_P1;PMS_P2;Temp;Humidity;BMP_temperature;BMP_pressure;BME280_temperature;BME280_humidity;BME280_pressure;Samples;Min_cycle;Max_cycle;Signal;HPM_P1;HPM_P2
2022/06/25 00:00:44;;;;;;;18.75;14.68;;;22.80;71.50;;;;;;2316770;58;21072;-75
2022/06/25 00:03:12;;;;;;;18.27;14.15;;;22.80;71.80;;;;;;2316776;58;21062;-75
2022/06/25 00:05:39;;;;;;;17.35;13.02;;;22.80;71.70;;;;;;2316223;58;21065;-75
2022/06/25 00:08:07;;;;;;;17.80;13.68;;;22.70;71.70;;;;;;2316518;58;21144;-74
2022/06/25 00:10:34;;;;;;;18.52;14.73;;;22.70;72.60;;;;;;2316109;58;21626;-74
2022/06/25 00:13:02;;;;;;;18.25;14.82;;;22.60;72.00;;;;;;2316105;58;21118;-75
2022/06/25 00:15:29;;;;;;;16.00;13.55;;;22.60;72.00;;;;;;2449195;54;21061;-74
2022/06/25 00:17:56;;;;;;;16.25;13.15;;;22.60;72.00;;;;;;2460720;54;21053;-74
2022/06/25 00:20:24;;;;;;;18.05;14.52;;;22.60;72.00;;;;;;2315885;58;21037;-74
2022/06/25 00:22:51;;;;;;;15.73;12.52;;;22.50;72.10;;;;;;2316280;58;21065;-74
2022/06/25 00:25:19;;;;;;;20.90;14.68;;;22.50;72.10;;;;;;2328210;54;21065;-74
2022/06/25 00:27:47;;;;;;;20.52;16.25;;;22.50;72.00;;;;;;2323406;54;21062;-75
2022/06/25 00:30:14;;;;;;;15.75;13.32;;;22.40;71.90;;;;;;2318568;54;21105;-75
2022/06/25 00:32:44;;;;;;;16.60;13.20;;;22.40;71.90;;;;;;2316964;54;21069;-74
2022/06/25 00:35:12;;;;;;;16.02;13.57;;;22.40;71.90;;;;;;2321899;54;21049;-75
2022/06/25 00:37:39;;;;;;;18.60;13.50;;;22.30;71.90;;;;;;2316002;58;21093;-75
2022/06/25 00:40:11;;;;;;;15.00;12.95;;;22.30;71.80;;;;;;2315972;58;21089;-75
2022/06/25 00:42:42;;;;;;;15.82;13.15;;;22.30;71.60;;;;;;2316127;58;21136;-74
2022/06/25 00:45:10;;;;;;;17.48;13.68;;;22.30;71.20;;;;;;2315155;58;21110;-75
2022/06/25 00:47:38;;;;;;;16.08;12.77;;;22.40;71.20;;;;;;2316005;58;21050;-75
2022/06/25 00:50:08;;;;;;;16.02;13.70;;;22.40;71.00;;;;;;2315821;58;21128;-75
2022/06/25 00:52:40;;;;;;;13.88;12.43;;;22.40;71.90;;;;;;2316691;58;21116;-75
2022/06/25 00:55:10;;;;;;;16.52;12.35;;;22.40;70.90;;;;;;2316208;58;21065;-75
2022/06/25 00:57:40;;;;;;;16.98;12.82;;;22.40;70.70;;;;;;2316340;58;21069;-74
2022/06/25 01:00:11;;;;;;;15.27;12.32;;;22.40;70.90;;;;;;2557038;54;21604;-74
2022/06/25 01:02:40;;;;;;;15.75;12.77;;;22.40;71.10;;;;;;2314819;58;21105;-75
2022/06/25 01:05:10;;;;;;;14.00;12.32;;;22.40;71.10;;;;;;2315433;58;21128;-75
2022/06/25 01:07:39;;;;;;;16.10;12.02;;;22.40;71.00;;;;;;2316295;58;21568;-75
2022/06/25 01:10:08;;;;;;;14.45;12.75;;;22.40;70.90;;;;;;2316091;58;21116;-74
2022/06/25 01:12:36;;;;;;;18.17;13.00;;;22.40;71.10;;;;;;2316879;58;21296;-74
2022/06/25 01:15:08;;;;;;;18.30;13.00;;;22.40;71.20;;;;;;2313785;58;21065;-74
2022/06/25 01:17:36;;;;;;;14.65;11.52;;;22.40;71.20;;;;;;2314367;58;21583;-74
2022/06/25 01:20:05;;;;;;;20.08;13.38;;;22.40;71.40;;;;;;2410756;54;21140;-74
2022/06/25 01:22:33;;;;;;;14.45;12.90;;;22.30;71.50;;;;;;2327019;54;21212;-74
2022/06/25 01:25:00;;;;;;;14.87;12.48;;;22.40;71.60;;;;;;2316183;58;21073;-75
2022/06/25 01:27:28;;;;;;;16.33;12.48;;;22.40;71.70;;;;;;2316209;58;21109;-75
2022/06/25 01:29:55;;;;;;;14.30;12.23;;;22.30;71.80;;;;;;2315903;58;21066;-74
2022/06/25 01:32:23;;;;;;;14.15;12.02;;;22.30;71.80;;;;;;2378008;54;21081;-74
2022/06/25 01:34:50;;;;;;;16.15;11.45;;;22.30;72.60;;;;;;2453397;54;21038;-74
2022/06/25 01:37:18;;;;;;;15.55;13.20;;;22.30;71.90;;;;;;2316551;58;21094;-75
2022/06/25 01:39:45;;;;;;;15.80;11.88;;;22.30;72.00;;;;;;2316673;58;21069;-75
2022/06/25 01:45:00;;;;;;;15.75;11.93;;;22.30;72.30;;;;;;2315903;58;21176;-74
2022/06/25 01:47:27;;;;;;;18.35;13.13;;;22.20;72.10;;;;;;2315427;58;21113;-74
2022/06/25 01:49:55;;;;;;;16.17;12.82;;;22.20;72.20;;;;;;2316193;58;21320;-74
2022/06/25 01:52:22;;;;;;;17.92;12.73;;;22.20;72.10;;;;;;2315442;58;21073;-74
2022/06/25 01:54:50;;;;;;;17.83;13.20;;;22.20;72.30;;;;;;2415433;54;21113;-74
2022/06/25 01:57:18;;;;;;;15.82;11.77;;;22.20;72.40;;;;;;2315330;58;21536;-75
2022/06/25 01:59:47;;;;;;;16.05;12.57;;;22.20;72.40;;;;;;2315470;58;21072;-74
2022/06/25 02:02:15;;;;;;;17.02;14.20;;;22.20;72.40;;;;;;2315781;58;21065;-75
2022/06/25 02:04:42;;;;;;;18.67;14.07;;;22.20;72.30;;;;;;2316462;58;21065;-74
2022/06/25 02:07:10;;;;;;;16.67;14.15;;;22.20;72.20;;;;;;2315373;58;21188;-75
2022/06/25 02:09:38;;;;;;;19.20;13.75;;;22.20;72.20;;;;;;2314849;58;21121;-75
2022/06/25 02:12:07;;;;;;;17.12;13.85;;;22.20;72.10;;;;;;2315951;58;22141;-75
2022/06/25 02:14:34;;;;;;;18.02;13.80;;;22.20;71.90;;;;;;2525704;54;21166;-75
2022/06/25 02:17:02;;;;;;;18.73;14.43;;;22.20;71.80;;;;;;2445793;54;21125;-75
2022/06/25 02:19:30;;;;;;;21.42;14.57;;;22.20;71.90;;;;;;2316028;58;21602;-74
2022/06/25 02:21:57;;;;;;;16.65;14.32;;;22.10;71.60;;;;;;2358334;54;21122;-75
2022/06/25 02:24:25;;;;;;;19.45;15.50;;;22.10;71.80;;;;;;2313967;58;21160;-75
2022/06/25 02:26:52;;;;;;;20.00;14.93;;;22.10;72.30;;;;;;2315835;58;21547;-74
2022/06/25 02:29:20;;;;;;;16.77;12.98;;;22.10;72.40;;;;;;2313679;58;21060;-74
2022/06/25 02:31:47;;;;;;;15.82;13.45;;;22.00;72.30;;;;;;2314908;58;21061;-74
2022/06/25 02:34:15;;;;;;;14.80;12.45;;;21.90;72.00;;;;;;2315461;58;21061;-74
2022/06/25 02:39:19;;;;;;;20.02;14.93;;;21.80;72.10;;;;;;2317860;57;23182;-75
2022/06/25 02:41:47;;;;;;;17.05;14.15;;;21.80;72.00;;;;;;2318579;58;21096;-75
2022/06/25 02:44:14;;;;;;;19.10;14.40;;;21.80;72.20;;;;;;2320344;58;21044;-75
2022/06/25 02:46:42;;;;;;;18.67;13.32;;;21.80;72.30;;;;;;2319665;57;21063;-75
2022/06/25 02:49:09;;;;;;;16.12;12.95;;;21.80;72.30;;;;;;2319603;58;21120;-75
2022/06/25 02:51:37;;;;;;;19.12;14.73;;;21.80;72.10;;;;;;2450716;54;21083;-75
2022/06/25 02:54:04;;;;;;;19.20;14.55;;;21.80;72.80;;;;;;2320529;58;21056;-75
2022/06/25 02:59:17;;;;;;;23.08;15.18;;;21.80;71.80;;;;;;2318143;54;21020;-75
2022/06/25 03:01:45;;;;;;;21.35;15.70;;;21.90;71.80;;;;;;2319722;58;21075;-75
2022/06/25 03:04:13;;;;;;;20.95;15.45;;;21.80;71.80;;;;;;2320650;58;22176;-75
2022/06/25 03:06:41;;;;;;;21.08;15.63;;;21.80;71.60;;;;;;2332602;54;21071;-75
2022/06/25 03:09:08;;;;;;;17.23;12.40;;;21.80;71.70;;;;;;2318581;58;21538;-75
2022/06/25 03:11:36;;;;;;;18.55;13.48;;;21.80;71.80;;;;;;2319871;54;21132;-75
2022/06/25 03:14:03;;;;;;;19.08;13.98;;;21.80;71.70;;;;;;2318856;58;21070;-74
2022/06/25 03:16:31;;;;;;;18.02;14.38;;;21.80;71.60;;;;;;2320173;58;21139;-75
2022/06/25 03:19:00;;;;;;;21.42;15.02;;;21.80;71.70;;;;;;2359982;54;21048;-75
2022/06/25 03:21:28;;;;;;;18.67;15.27;;;21.80;71.60;;;;;;2384225;54;21048;-75
2022/06/25 03:23:56;;;;;;;18.98;14.68;;;21.80;71.40;;;;;;2318827;58;21068;-75
2022/06/25 03:26:23;;;;;;;21.65;16.35;;;21.80;71.60;;;;;;2319406;58;21141;-75
2022/06/25 03:28:50;;;;;;;18.02;14.57;;;21.80;71.80;;;;;;2318490;58;21856;-75
2022/06/25 03:31:18;;;;;;;24.12;18.35;;;21.80;71.90;;;;;;2320231;58;21047;-76
2022/06/25 03:33:45;;;;;;;21.45;18.27;;;21.80;72.30;;;;;;2319593;58;21048;-76
2022/06/25 03:36:13;;;;;;;22.65;18.10;;;21.80;72.50;;;;;;2319812;58;21055;-75
2022/06/25 03:38:41;;;;;;;26.02;20.37;;;21.70;72.70;;;;;;2318840;58;21044;-75
2022/06/25 03:43:54;;;;;;;33.97;22.30;;;21.70;73.20;;;;;;2320395;54;21003;-75
2022/06/25 03:46:21;;;;;;;35.65;26.35;;;21.70;73.30;;;;;;2399875;54;21068;-75
2022/06/25 03:48:49;;;;;;;38.30;26.80;;;21.70;73.00;;;;;;2320324;58;21047;-75
2022/06/25 03:51:17;;;;;;;35.40;26.50;;;21.70;74.60;;;;;;2318896;58;21586;-74
2022/06/25 03:53:44;;;;;;;35.67;26.15;;;21.70;73.90;;;;;;2318630;58;21135;-76
2022/06/25 03:56:12;;;;;;;35.97;26.75;;;21.60;74.70;;;;;;2318527;58;21665;-75
2022/06/25 03:58:41;;;;;;;34.85;25.40;;;21.60;74.00;;;;;;2318483;58;21048;-75
2022/06/25 04:01:08;;;;;;;36.38;26.25;;;21.60;74.10;;;;;;2318940;58;21059;-75
2022/06/25 04:03:36;;;;;;;37.38;25.75;;;21.60;74.20;;;;;;2317983;58;21164;-75
2022/06/25 04:08:41;;;;;;;41.42;29.55;;;21.60;74.00;;;;;;2285559;58;21600;-76
2022/06/25 04:11:09;;;;;;;36.08;27.05;;;21.60;74.20;;;;;;2288657;58;21075;-76
2022/06/25 04:13:36;;;;;;;36.47;26.45;;;21.60;73.80;;;;;;2289114;58;21071;-76
2022/06/25 04:16:05;;;;;;;37.95;26.80;;;21.60;74.40;;;;;;2289890;58;21074;-76
2022/06/25 04:18:32;;;;;;;41.78;29.52;;;21.60;74.60;;;;;;2289802;58;21066;-76
2022/06/25 04:21:00;;;;;;;47.90;31.65;;;21.60;74.60;;;;;;2289302;58;21613;-76
2022/06/25 04:23:27;;;;;;;46.60;31.30;;;21.60;74.70;;;;;;2290210;58;21062;-76
2022/06/25 04:31:17;;;;;;;45.22;29.35;;;21.50;75.30;;;;;;2344181;57;21017;-75
2022/06/25 04:33:44;;;;;;;41.67;28.90;;;21.50;75.50;;;;;;2345952;57;21544;-76
2022/06/25 04:36:12;;;;;;;50.92;34.08;;;21.50;75.60;;;;;;2344675;57;21034;-76
2022/06/25 04:38:39;;;;;;;45.05;31.42;;;21.50;75.80;;;;;;2346267;57;21053;-76
2022/06/25 04:41:07;;;;;;;42.28;28.40;;;21.50;76.00;;;;;;2344967;57;21069;-76
2022/06/25 04:43:34;;;;;;;38.42;27.70;;;21.50;76.10;;;;;;2346028;57;21080;-76
2022/06/25 04:48:41;;;;;;;40.28;29.60;;;21.60;75.90;;;;;;2529484;54;22182;-76
2022/06/25 04:51:08;;;;;;;34.70;26.60;;;21.60;75.90;;;;;;2289271;58;21074;-75
2022/06/25 04:53:54;;;;;;;42.08;28.30;;;21.60;76.10;;;;;;2288864;58;21068;-75
2022/06/25 04:56:23;;;;;;;38.33;26.80;;;21.60;76.10;;;;;;2288991;58;21122;-75
2022/06/25 04:58:50;;;;;;;44.33;29.10;;;21.70;76.00;;;;;;2289027;58;21620;-75
2022/06/25 05:01:18;;;;;;;41.03;29.17;;;21.70;76.10;;;;;;2289947;58;21066;-75
2022/06/25 05:03:46;;;;;;;32.38;24.33;;;21.70;75.80;;;;;;2289248;58;21067;-75
2022/06/25 05:06:14;;;;;;;35.67;25.20;;;21.80;75.60;;;;;;2288508;58;21051;-75
2022/06/25 05:08:42;;;;;;;40.65;28.20;;;21.80;75.40;;;;;;2288306;58;21067;-75
2022/06/25 05:11:09;;;;;;;37.78;26.95;;;21.80;75.20;;;;;;2289458;58;21082;-75
2022/06/25 05:13:37;;;;;;;33.10;24.67;;;21.80;75.00;;;;;;2290632;58;21107;-75
2022/06/25 05:16:05;;;;;;;36.28;26.25;;;21.90;75.00;;;;;;2290100;58;21127;-75
2022/06/25 05:18:33;;;;;;;34.38;24.00;;;21.90;75.10;;;;;;2289507;58;21206;-74
2022/06/25 05:21:01;;;;;;;36.70;25.15;;;21.90;75.50;;;;;;2289428;58;21067;-75
2022/06/25 05:23:29;;;;;;;34.50;25.67;;;21.90;74.90;;;;;;2288685;58;22143;-75
2022/06/25 05:25:56;;;;;;;35.22;25.75;;;22.00;74.60;;;;;;2288367;58;21060;-75
2022/06/25 05:28:24;;;;;;;36.17;25.52;;;22.00;74.60;;;;;;2289429;58;21075;-75
2022/06/25 05:30:51;;;;;;;31.15;21.77;;;22.00;74.50;;;;;;2289614;58;21400;-76
2022/06/25 05:33:19;;;;;;;34.33;26.42;;;22.10;74.40;;;;;;2289166;58;21147;-75
2022/06/25 05:35:46;;;;;;;41.37;26.50;;;22.10;74.50;;;;;;2288897;58;21091;-75
2022/06/25 05:38:14;;;;;;;35.30;25.77;;;22.00;74.60;;;;;;2289931;58;21063;-75
2022/06/25 05:40:41;;;;;;;29.20;21.70;;;22.00;74.80;;;;;;2290064;58;21182;-75
2022/06/25 05:43:10;;;;;;;30.35;21.52;;;22.00;75.00;;;;;;2289986;58;21131;-75
2022/06/25 05:45:37;;;;;;;36.95;24.87;;;22.00;75.20;;;;;;2288749;58;21197;-75
2022/06/25 05:48:06;;;;;;;38.03;26.05;;;22.00;75.20;;;;;;2289987;58;21071;-75
2022/06/25 05:50:34;;;;;;;34.20;24.77;;;22.10;75.10;;;;;;2289130;58;21569;-75
2022/06/25 05:53:01;;;;;;;37.53;26.80;;;22.10;75.00;;;;;;2290492;58;21530;-75
2022/06/25 05:55:29;;;;;;;39.83;27.87;;;22.10;74.90;;;;;;2289489;58;21610;-75
2022/06/25 05:57:56;;;;;;;39.45;26.98;;;22.10;75.10;;;;;;2289930;58;21121;-75
2022/06/25 06:00:26;;;;;;;36.72;25.90;;;22.20;75.20;;;;;;2288670;58;21047;-76
2022/06/25 06:02:53;;;;;;;41.28;26.83;;;22.20;75.60;;;;;;2289024;58;21060;-75
2022/06/25 06:05:21;;;;;;;36.80;25.12;;;22.20;74.90;;;;;;2287694;58;21597;-75
2022/06/25 06:07:48;;;;;;;38.03;25.67;;;22.20;75.80;;;;;;2289277;58;21071;-75
2022/06/25 06:10:16;;;;;;;35.45;25.58;;;22.20;74.90;;;;;;2289228;58;21063;-75
2022/06/25 06:12:44;;;;;;;38.47;25.90;;;22.20;75.00;;;;;;2289266;58;21151;-75
2022/06/25 06:15:12;;;;;;;40.17;26.48;;;22.20;74.80;;;;;;2287930;58;21059;-75
2022/06/25 06:17:40;;;;;;;39.08;27.00;;;22.20;74.70;;;;;;2288798;58;21075;-75
2022/06/25 06:20:09;;;;;;;32.17;23.58;;;22.30;74.70;;;;;;2523060;54;21062;-75
2022/06/25 06:22:36;;;;;;;32.08;22.52;;;22.30;75.00;;;;;;2287763;58;21039;-75
2022/06/25 06:25:05;;;;;;;32.53;23.35;;;22.30;75.00;;;;;;2288924;58;21629;-76
2022/06/25 06:27:33;;;;;;;32.53;22.58;;;22.30;74.80;;;;;;2289411;58;21063;-75
2022/06/25 06:30:00;;;;;;;34.60;21.50;;;22.30;74.50;;;;;;2288248;58;21127;-75
2022/06/25 06:32:28;;;;;;;31.60;22.05;;;22.30;74.80;;;;;;2288968;58;21131;-75
2022/06/25 06:34:55;;;;;;;27.65;19.83;;;22.40;74.90;;;;;;2287827;58;21059;-75
2022/06/25 06:37:23;;;;;;;28.05;20.75;;;22.40;75.30;;;;;;2288788;58;21063;-75
2022/06/25 06:39:50;;;;;;;28.87;21.10;;;22.40;74.60;;;;;;2287586;58;21142;-75
2022/06/25 06:42:18;;;;;;;25.55;18.55;;;22.40;74.90;;;;;;2289259;58;21134;-75
2022/06/25 06:44:45;;;;;;;23.00;17.50;;;22.50;74.80;;;;;;2288442;58;21062;-74
2022/06/25 06:47:13;;;;;;;18.40;14.05;;;22.50;74.50;;;;;;2288827;58;21051;-75
2022/06/25 06:49:40;;;;;;;20.73;15.25;;;22.50;73.90;;;;;;2288273;58;21123;-74
2022/06/25 06:52:08;;;;;;;20.35;15.57;;;22.50;73.60;;;;;;2288944;58;21130;-75
2022/06/25 06:54:35;;;;;;;19.58;13.70;;;22.60;73.70;;;;;;2288931;58;21596;-74
2022/06/25 06:57:03;;;;;;;15.80;12.75;;;22.60;73.20;;;;;;2288934;58;21067;-74
2022/06/25 06:59:31;;;;;;;15.38;11.93;;;22.60;73.00;;;;;;2288483;58;21389;-76
2022/06/25 07:01:58;;;;;;;15.32;10.82;;;22.70;72.70;;;;;;2287082;58;21605;-75
2022/06/25 07:04:26;;;;;;;19.45;11.52;;;22.70;72.40;;;;;;2286659;58;21123;-74
2022/06/25 07:06:53;;;;;;;13.57;9.65;;;22.70;72.20;;;;;;2287453;58;21135;-75
2022/06/25 07:09:21;;;;;;;15.63;9.50;;;22.80;72.00;;;;;;2287073;58;21061;-76
2022/06/25 07:11:48;;;;;;;9.20;7.85;;;22.80;71.80;;;;;;2287514;58;21058;-76
2022/06/25 07:14:15;;;;;;;10.32;7.37;;;22.80;71.20;;;;;;2287475;58;21079;-75
2022/06/25 07:16:43;;;;;;;11.63;8.63;;;22.80;70.80;;;;;;2287526;58;21115;-74
2022/06/25 07:19:10;;;;;;;11.02;8.25;;;22.90;70.60;;;;;;2289050;58;21120;-75
2022/06/25 07:21:38;;;;;;;10.63;7.90;;;22.90;70.40;;;;;;2287124;58;21475;-75
2022/06/25 07:24:06;;;;;;;10.48;8.63;;;23.00;70.30;;;;;;2288275;58;21123;-75
2022/06/25 07:26:35;;;;;;;8.90;7.15;;;23.00;70.20;;;;;;2287932;58;21209;-75
2022/06/25 07:29:03;;;;;;;9.88;8.13;;;23.00;70.00;;;;;;2288817;58;21063;-75
2022/06/25 07:31:31;;;;;;;11.18;8.80;;;23.10;69.70;;;;;;2288506;58;21096;-75
2022/06/25 07:33:59;;;;;;;10.68;8.07;;;23.10;69.80;;;;;;2288585;58;21586;-75
2022/06/25 07:36:26;;;;;;;8.77;7.30;;;23.20;69.80;;;;;;2288492;58;21652;-75
2022/06/25 07:38:54;;;;;;;7.93;6.85;;;23.20;69.70;;;;;;2287184;58;21143;-75
2022/06/25 07:41:22;;;;;;;10.23;7.30;;;23.20;70.00;;;;;;2288961;58;21060;-75
2022/06/25 07:43:49;;;;;;;8.32;6.22;;;23.20;69.80;;;;;;2289403;58;21071;-75
2022/06/25 07:46:17;;;;;;;8.20;5.45;;;23.30;69.30;;;;;;2288775;58;21051;-75
2022/06/25 07:48:44;;;;;;;7.72;5.47;;;23.30;68.50;;;;;;2288668;58;21134;-75
2022/06/25 07:53:58;;;;;;;7.37;5.60;;;23.40;68.20;;;;;;2287502;58;21015;-75
2022/06/25 07:56:25;;;;;;;7.43;5.72;;;23.40;67.40;;;;;;2286449;58;21031;-76
2022/06/25 07:58:53;;;;;;;6.40;5.75;;;23.50;67.90;;;;;;2287688;58;21087;-75
2022/06/25 08:01:20;;;;;;;9.07;5.72;;;23.50;67.70;;;;;;2287061;58;21115;-75
2022/06/25 08:03:48;;;;;;;6.62;5.40;;;23.50;67.30;;;;;;2288003;58;22159;-75
2022/06/25 08:06:15;;;;;;;6.97;4.47;;;23.60;67.20;;;;;;2287314;58;21071;-75
2022/06/25 08:08:43;;;;;;;5.50;4.82;;;23.70;67.20;;;;;;2288077;58;21067;-75
2022/06/25 08:11:11;;;;;;;5.18;4.22;;;23.70;65.80;;;;;;2288698;58;21130;-79
2022/06/25 08:13:38;;;;;;;5.93;5.25;;;23.80;65.50;;;;;;2286915;58;21059;-78
2022/06/25 08:16:09;;;;;;;5.60;4.50;;;23.80;65.40;;;;;;2287775;58;21067;-78
2022/06/25 08:18:38;;;;;;;6.87;4.22;;;23.80;65.00;;;;;;2289410;58;21130;-77
2022/06/25 08:21:07;;;;;;;6.10;4.65;;;23.90;64.80;;;;;;2289378;58;21119;-78
2022/06/25 08:23:34;;;;;;;6.03;4.57;;;24.00;64.50;;;;;;2289674;58;21055;-78
2022/06/25 08:26:02;;;;;;;6.28;5.35;;;24.00;63.90;;;;;;2289149;58;21103;-78
2022/06/25 08:28:30;;;;;;;5.78;3.72;;;24.00;63.90;;;;;;2289328;58;21669;-77
2022/06/25 08:30:57;;;;;;;6.60;5.00;;;24.10;63.70;;;;;;2288103;58;21063;-77
2022/06/25 08:33:25;;;;;;;6.47;5.20;;;24.10;63.70;;;;;;2289506;58;21126;-78
2022/06/25 08:35:52;;;;;;;6.55;5.85;;;24.20;63.20;;;;;;2287389;58;21066;-79
2022/06/25 08:38:20;;;;;;;5.97;4.75;;;24.20;62.70;;;;;;2287142;58;21051;-76
2022/06/25 08:40:49;;;;;;;6.25;4.97;;;24.30;62.80;;;;;;2288868;59;21129;-76
2022/06/25 08:43:16;;;;;;;5.05;4.53;;;24.30;62.50;;;;;;2288891;58;21068;-76
2022/06/25 08:45:45;;;;;;;4.72;4.22;;;24.40;62.50;;;;;;2288565;58;21151;-75
2022/06/25 08:48:16;;;;;;;5.72;4.50;;;24.40;62.40;;;;;;2289089;58;21116;-76
2022/06/25 08:50:45;;;;;;;6.75;4.80;;;24.50;61.80;;;;;;2288204;59;21072;-76
2022/06/25 08:53:13;;;;;;;5.80;4.12;;;24.50;61.60;;;;;;2288766;59;21594;-74
2022/06/25 08:55:41;;;;;;;4.62;3.75;;;24.60;62.10;;;;;;2288351;59;21134;-75
2022/06/25 08:58:09;;;;;;;4.18;3.75;;;24.70;61.80;;;;;;2288658;58;21146;-75
2022/06/25 09:00:39;;;;;;;5.10;3.83;;;24.70;60.80;;;;;;2288349;58;21664;-76
2022/06/25 09:03:07;;;;;;;3.78;3.33;;;24.80;60.90;;;;;;2288335;59;21051;-75
2022/06/25 09:05:36;;;;;;;4.07;3.50;;;24.90;60.80;;;;;;2288248;59;21135;-75
2022/06/25 09:08:06;;;;;;;3.72;3.42;;;24.90;61.00;;;;;;2287810;59;21083;-75
2022/06/25 09:10:35;;;;;;;3.80;3.40;;;25.10;61.40;;;;;;2288408;59;21062;-76
2022/06/25 09:13:04;;;;;;;5.20;3.60;;;25.20;61.80;;;;;;2288256;59;21059;-76
2022/06/25 09:15:34;;;;;;;5.05;3.50;;;25.20;61.30;;;;;;2288285;58;21112;-75
2022/06/25 09:18:07;;;;;;;4.18;3.50;;;25.30;61.60;;;;;;2288585;59;21614;-75
2022/06/25 09:20:35;;;;;;;5.50;3.95;;;25.40;60.90;;;;;;2287937;59;21059;-76
2022/06/25 09:23:05;;;;;;;4.55;4.12;;;25.50;61.00;;;;;;2288822;59;21705;-76
2022/06/25 09:25:34;;;;;;;5.15;4.18;;;25.60;59.80;;;;;;2287792;59;21139;-75
2022/06/25 09:28:02;;;;;;;5.30;4.40;;;25.60;60.30;;;;;;2288049;59;21130;-74
2022/06/25 09:30:32;;;;;;;6.65;4.43;;;25.70;60.50;;;;;;2285968;59;21146;-74
2022/06/25 09:33:01;;;;;;;7.93;3.50;;;25.80;59.40;;;;;;2289335;58;21115;-76
2022/06/25 09:35:36;;;;;;;3.50;3.20;;;25.80;58.60;;;;;;2289473;58;21051;-75
2022/06/25 09:38:08;;;;;;;4.50;3.62;;;25.90;58.80;;;;;;2289747;58;21685;-75
2022/06/25 09:40:37;;;;;;;6.40;4.70;;;25.90;58.40;;;;;;2289641;58;21071;-77
2022/06/25 09:43:13;;;;;;;5.00;3.60;;;26.00;58.20;;;;;;2290242;58;21628;-77
2022/06/25 09:45:42;;;;;;;3.42;3.12;;;26.10;57.50;;;;;;2289664;58;21593;-77
2022/06/25 09:48:17;;;;;;;5.05;3.78;;;26.10;57.40;;;;;;2289781;58;21194;-77
2022/06/25 09:50:44;;;;;;;5.55;4.00;;;26.10;57.10;;;;;;2289955;58;21552;-77
2022/06/25 09:53:12;;;;;;;3.62;3.33;;;26.10;56.50;;;;;;2290524;58;21067;-79
2022/06/25 09:55:40;;;;;;;5.50;4.00;;;26.10;56.30;;;;;;2291783;58;21090;-79
2022/06/25 09:58:09;;;;;;;5.43;3.67;;;26.10;56.30;;;;;;2290147;58;21083;-78
2022/06/25 10:00:37;;;;;;;5.82;3.20;;;26.20;56.60;;;;;;2289041;58;21130;-78
2022/06/25 10:03:06;;;;;;;4.45;3.37;;;26.20;56.80;;;;;;2287907;58;21083;-77
2022/06/25 10:05:39;;;;;;;4.75;3.00;;;26.30;56.60;;;;;;2288521;58;21119;-77
2022/06/25 10:08:11;;;;;;;3.60;3.30;;;26.40;57.30;;;;;;2274074;54;21123;-77
2022/06/25 10:10:41;;;;;;;4.30;3.90;;;26.40;57.70;;;;;;2263088;59;21050;-77
2022/06/25 10:13:09;;;;;;;4.28;3.60;;;26.50;57.50;;;;;;2261894;59;21117;-77
2022/06/25 10:15:38;;;;;;;3.15;2.85;;;26.40;56.90;;;;;;2263363;59;21070;-77
2022/06/25 10:18:09;;;;;;;4.35;3.95;;;26.50;57.90;;;;;;2263375;59;21070;-76
2022/06/25 10:20:38;;;;;;;5.35;3.60;;;26.50;56.40;;;;;;2300363;55;21050;-76
2022/06/25 10:23:07;;;;;;;5.75;3.20;;;26.60;56.80;;;;;;2263851;59;21074;-77
2022/06/25 10:25:36;;;;;;;4.60;3.80;;;26.60;57.20;;;;;;2264638;55;21085;-78
2022/06/25 10:28:12;;;;;;;5.65;3.80;;;26.70;57.30;;;;;;2263990;59;21062;-78
2022/06/25 10:30:45;;;;;;;3.75;3.45;;;26.70;56.80;;;;;;2263044;59;21130;-77
2022/06/25 10:33:22;;;;;;;;;;;26.70;56.90;;;;;;2262948;59;21061;-77
2022/06/25 10:38:32;;;;;;;4.25;3.72;;;26.90;57.10;;;;;;2332455;57;22099;-75
2022/06/25 10:42:58;;;;;;;4.87;3.85;;;26.90;56.90;;;;;;2489657;54;21529;-76
2022/06/25 10:46:18;;;;;;;3.67;3.28;;;26.90;56.00;;;;;;2318051;58;21203;-75
2022/06/25 10:48:53;;;;;;;4.85;3.60;;;27.10;55.30;;;;;;2342402;53;21596;-75
2022/06/25 10:51:35;;;;;;;6.22;3.90;;;27.10;54.60;;;;;;2317951;56;21039;-76
2022/06/25 10:54:05;;;;;;;3.80;3.37;;;27.20;54.10;;;;;;2318520;55;21151;-76
2022/06/25 10:56:42;;;;;;;5.25;3.50;;;27.20;53.40;;;;;;2411369;52;21038;-75
2022/06/25 10:59:10;;;;;;;6.53;3.47;;;27.30;53.30;;;;;;2403859;55;21032;-76
2022/06/25 11:01:37;;;;;;;5.40;3.80;;;27.30;53.30;;;;;;2404990;55;21084;-76
2022/06/25 11:04:11;;;;;;;5.25;4.47;;;27.40;53.20;;;;;;2404503;55;21568;-75
2022/06/25 11:06:40;;;;;;;4.62;3.58;;;27.40;52.70;;;;;;2404038;55;21083;-77
2022/06/25 11:09:13;;;;;;;5.95;3.87;;;27.50;52.90;;;;;;2403416;55;21024;-76
2022/06/25 11:11:42;;;;;;;4.18;3.10;;;27.60;53.00;;;;;;2404220;53;21071;-83
2022/06/25 11:14:22;;;;;;;5.37;3.42;;;27.60;53.40;;;;;;2403781;55;21024;-75
2022/06/25 11:16:51;;;;;;;4.43;3.35;;;27.70;52.70;;;;;;2405346;55;21048;-77
2022/06/25 11:19:19;;;;;;;4.95;3.22;;;27.90;52.60;;;;;;2404961;55;21147;-76
2022/06/25 11:21:47;;;;;;;4.37;3.80;;;28.00;52.30;;;;;;2405308;55;22078;-78
2022/06/25 11:29:46;;;;;;;4.97;3.25;;;28.40;51.60;;;;;;2372212;52;21101;-76
2022/06/25 11:32:15;;;;;;;3.92;3.50;;;28.70;51.10;;;;;;2374721;56;21035;-75
2022/06/25 11:34:43;;;;;;;3.90;3.33;;;28.80;49.90;;;;;;2375120;56;21531;-75
2022/06/25 11:37:11;;;;;;;3.35;2.92;;;29.00;48.90;;;;;;2531682;52;21054;-75
2022/06/25 11:39:40;;;;;;;3.20;2.90;;;29.10;48.70;;;;;;2375056;56;21519;-75
2022/06/25 11:42:09;;;;;;;3.10;2.80;;;29.20;49.00;;;;;;2374580;56;21039;-75
2022/06/25 11:44:42;;;;;;;2.80;2.50;;;29.40;47.80;;;;;;2374609;56;21054;-75
2022/06/25 11:47:12;;;;;;;3.62;3.33;;;29.50;48.10;;;;;;2374343;56;21424;-74
2022/06/25 11:49:41;;;;;;;5.25;2.87;;;29.60;47.40;;;;;;2374564;56;21066;-76
2022/06/25 11:52:09;;;;;;;3.47;2.97;;;29.70;47.10;;;;;;2374483;56;21122;-76
2022/06/25 11:54:38;;;;;;;3.80;3.22;;;29.80;47.70;;;;;;2375177;56;21144;-75
2022/06/25 11:57:08;;;;;;;4.28;3.33;;;30.00;46.90;;;;;;2373306;56;21059;-77
2022/06/25 11:59:37;;;;;;;3.45;2.92;;;30.00;46.50;;;;;;2374447;56;21059;-77
2022/06/25 12:02:06;;;;;;;3.67;3.30;;;30.10;46.70;;;;;;2374085;56;21537;-77
2022/06/25 12:04:45;;;;;;;7.00;4.20;;;30.10;46.50;;;;;;2374935;56;21050;-77
2022/06/25 12:07:18;;;;;;;3.75;3.35;;;30.20;46.00;;;;;;2373254;56;21038;-76
2022/06/25 12:09:46;;;;;;;6.37;3.78;;;30.20;46.10;;;;;;2628883;52;21054;-77
2022/06/25 12:12:13;;;;;;;5.37;3.30;;;30.30;45.70;;;;;;2374716;56;22185;-77
2022/06/25 12:14:41;;;;;;;3.87;3.50;;;30.30;45.50;;;;;;2373759;56;21046;-77
2022/06/25 12:17:10;;;;;;;5.15;3.45;;;30.20;45.10;;;;;;2373502;56;21047;-77
2022/06/25 12:19:48;;;;;;;5.25;3.35;;;30.20;45.10;;;;;;2374403;56;21102;-76
2022/06/25 12:22:23;;;;;;;3.95;3.40;;;30.20;45.60;;;;;;2506846;52;21554;-76
2022/06/25 12:24:51;;;;;;;2.90;2.70;;;30.10;45.60;;;;;;2374629;56;21173;-77
2022/06/25 12:27:19;;;;;;;3.62;3.30;;;30.10;45.70;;;;;;2374321;56;21587;-76
2022/06/25 12:29:49;;;;;;;3.80;3.33;;;30.10;44.80;;;;;;2373966;56;21519;-77
2022/06/25 12:32:16;;;;;;;4.57;3.30;;;30.10;44.60;;;;;;2374620;56;21043;-77
2022/06/25 12:34:48;;;;;;;3.20;2.90;;;30.10;44.60;;;;;;2373792;56;21047;-77
2022/06/25 12:37:28;;;;;;;3.30;3.05;;;30.10;44.90;;;;;;2374282;53;21640;-77
2022/06/25 12:39:57;;;;;;;3.40;3.10;;;30.00;45.70;;;;;;2479539;52;21594;-77
2022/06/25 12:42:26;;;;;;;5.68;3.45;;;30.00;45.60;;;;;;2373886;56;21535;-76
2022/06/25 12:44:54;;;;;;;4.93;3.28;;;30.10;45.70;;;;;;2372482;56;21055;-77
2022/06/25 12:47:21;;;;;;;3.40;3.10;;;30.10;46.60;;;;;;2377333;52;21121;-76
2022/06/25 12:49:51;;;;;;;3.28;3.00;;;30.30;45.70;;;;;;2373554;56;21129;-77
2022/06/25 12:52:23;;;;;;;5.55;3.08;;;30.40;45.00;;;;;;2374243;56;21601;-77
2022/06/25 12:54:53;;;;;;;5.63;3.00;;;30.50;43.50;;;;;;2373857;56;21051;-77
2022/06/25 12:57:26;;;;;;;2.90;2.70;;;30.60;43.50;;;;;;2373386;56;21716;-77
2022/06/25 12:59:55;;;;;;;4.05;2.97;;;30.70;43.30;;;;;;2426752;52;21150;-80
2022/06/25 13:02:22;;;;;;;2.95;2.65;;;30.70;43.20;;;;;;2377314;52;21035;-81
2022/06/25 13:04:50;;;;;;;4.78;2.60;;;30.70;43.00;;;;;;2375304;56;21122;-78
2022/06/25 13:07:18;;;;;;;2.62;2.42;;;30.80;42.30;;;;;;2372591;56;21122;-81
2022/06/25 13:09:48;;;;;;;2.60;2.40;;;30.90;43.00;;;;;;2374848;56;21114;-78
2022/06/25 13:12:15;;;;;;;2.58;2.37;;;31.00;42.80;;;;;;2374444;56;21019;-86
2022/06/25 13:14:43;;;;;;;2.62;2.42;;;31.20;44.00;;;;;;2396688;52;21051;-83
2022/06/25 13:17:11;;;;;;;2.75;2.15;;;31.30;42.50;;;;;;2390611;52;21117;-83